Hartland Corners, Vermont
Current Conditions -  °F | °C
As of 12:53 AM on Friday 28 Nov 2014 (Local Time) from KLEB Reporting Station
Overcast Overcast  
Wind Chill: 27°   Ceiling: 1900
Heat Index: 27°   Visibility: 10mi
Dew Point: 21°   Wind: 3mph
Humidity: 78%   Direction: 10°N
Pressure: 29.99"   Gusts: NA
Location:  43.5466°N, 72.4252°W
Report Text: KLEB 280553Z 01003KT 10SM OVC019 M03/M06 A2999 RMK AO2 SLP167 T10281061 11017 21028 58009
Loading
Personal Weather Stations






























Interactive Weather Map New forecast layout! Learn more

10-Day Weather Forecast

Advertisements
Track Severe Weather on mobile